createdAt,value
2018-06-17T00:00:42.200Z,21.10
2018-06-17T00:03:15.268Z,21.10
2018-06-17T00:05:48.344Z,21.00
2018-06-17T00:08:21.440Z,21.00
2018-06-17T00:10:54.498Z,21.00
2018-06-17T00:13:27.611Z,20.90
2018-06-17T00:16:00.714Z,20.90
2018-06-17T00:18:33.803Z,20.90
2018-06-17T00:21:06.895Z,20.90
2018-06-17T00:23:39.988Z,20.80
2018-06-17T00:26:13.046Z,20.80
2018-06-17T00:28:46.091Z,20.70
2018-06-17T00:31:19.140Z,20.70
2018-06-17T00:33:52.254Z,20.70
2018-06-17T00:36:25.416Z,20.70
2018-06-17T00:38:58.521Z,20.70
2018-06-17T00:41:31.554Z,20.70
2018-06-17T00:44:04.587Z,20.60
2018-06-17T00:46:37.676Z,20.60
2018-06-17T00:49:10.752Z,20.60
2018-06-17T00:51:43.819Z,20.60
2018-06-17T00:54:16.918Z,20.60
2018-06-17T00:57:01.417Z,20.60
2018-06-17T00:59:34.499Z,20.50
2018-06-17T01:02:07.606Z,20.50
2018-06-17T01:04:40.657Z,20.50
2018-06-17T01:07:13.779Z,20.50
2018-06-17T01:09:46.859Z,20.50
2018-06-17T01:12:19.928Z,20.40
2018-06-17T01:14:52.991Z,20.40
2018-06-17T01:17:26.171Z,20.40
2018-06-17T01:19:59.251Z,20.30
2018-06-17T01:22:32.294Z,20.30
2018-06-17T01:25:05.405Z,20.30
2018-06-17T01:27:38.439Z,20.30
2018-06-17T01:30:11.495Z,20.20
2018-06-17T01:32:44.547Z,20.30
2018-06-17T01:35:17.612Z,20.20
2018-06-17T01:37:50.751Z,20.20
2018-06-17T01:40:23.846Z,20.20
2018-06-17T01:42:56.898Z,20.10
2018-06-17T01:45:30.023Z,20.10
2018-06-17T01:48:03.147Z,20.10
2018-06-17T01:50:36.338Z,20.00
2018-06-17T01:53:09.383Z,20.00
2018-06-17T01:55:42.478Z,20.00
2018-06-17T01:58:15.545Z,19.90
2018-06-17T02:00:48.627Z,19.90
2018-06-17T02:03:27.069Z,19.90
2018-06-17T02:06:05.526Z,19.80
2018-06-17T02:08:44.028Z,19.80
2018-06-17T02:11:22.473Z,19.80
2018-06-17T02:13:59.762Z,19.80
2018-06-17T02:16:32.822Z,19.70
2018-06-17T02:19:05.870Z,19.70
2018-06-17T02:21:39.088Z,19.70
2018-06-17T02:24:12.113Z,19.60
2018-06-17T02:26:45.141Z,19.60
2018-06-17T02:29:18.294Z,19.60
2018-06-17T02:31:51.339Z,19.60
2018-06-17T02:34:24.415Z,19.50
2018-06-17T02:36:57.562Z,19.50
2018-06-17T02:39:30.598Z,19.50
2018-06-17T02:42:03.774Z,19.40
2018-06-17T02:44:37.016Z,19.40
2018-06-17T02:47:15.582Z,19.40
2018-06-17T02:49:48.869Z,19.30
2018-06-17T02:52:27.333Z,19.30
2018-06-17T02:55:00.383Z,19.30
2018-06-17T03:00:06.249Z,19.30
2018-06-17T03:02:39.295Z,19.20
2018-06-17T03:07:45.197Z,19.20
2018-06-17T03:10:18.281Z,19.20
2018-06-17T03:12:51.372Z,19.10
2018-06-17T03:15:24.442Z,19.10
2018-06-17T03:17:57.480Z,19.10
2018-06-17T03:23:03.653Z,19.10
2018-06-17T03:25:42.239Z,19.00
2018-06-17T03:28:20.904Z,19.00
2018-06-17T03:30:59.484Z,19.00
2018-06-17T03:33:37.990Z,19.00
2018-06-17T03:36:12.072Z,18.90
2018-06-17T03:38:45.151Z,19.00
2018-06-17T03:41:18.215Z,18.90
2018-06-17T03:43:51.342Z,18.90
2018-06-17T03:46:24.383Z,18.90
2018-06-17T03:48:57.477Z,18.90
2018-06-17T03:51:30.697Z,18.90
2018-06-17T03:54:03.790Z,18.90
2018-06-17T03:56:36.843Z,18.90
2018-06-17T03:59:09.897Z,18.90
2018-06-17T04:01:42.944Z,18.90
2018-06-17T04:04:16.032Z,18.90
2018-06-17T04:06:49.191Z,18.90
2018-06-17T04:09:22.258Z,18.90
2018-06-17T04:11:55.314Z,18.90
2018-06-17T04:14:28.382Z,18.90
2018-06-17T04:17:05.785Z,18.90
2018-06-17T04:19:38.911Z,19.00
2018-06-17T04:22:12.218Z,19.00
2018-06-17T04:24:45.261Z,19.00
2018-06-17T04:27:18.314Z,19.00
2018-06-17T04:29:51.414Z,19.00
2018-06-17T04:32:24.479Z,19.10
2018-06-17T04:34:57.556Z,19.10
2018-06-17T04:37:30.783Z,19.10
2018-06-17T04:40:03.911Z,19.10
2018-06-17T04:42:36.944Z,19.20
2018-06-17T04:45:10.043Z,19.20
2018-06-17T04:47:43.076Z,19.20
2018-06-17T04:50:16.186Z,19.30
2018-06-17T04:52:49.219Z,19.30
2018-06-17T04:55:22.290Z,19.30
2018-06-17T04:57:55.329Z,19.40
2018-06-17T05:00:28.454Z,19.50
2018-06-17T05:03:02.402Z,19.50
2018-06-17T05:05:35.526Z,19.50
2018-06-17T05:08:08.614Z,19.50
2018-06-17T05:10:41.683Z,19.60
2018-06-17T05:13:14.767Z,19.60
2018-06-17T05:15:47.863Z,19.70
2018-06-17T05:18:20.907Z,19.80
2018-06-17T05:20:54.024Z,19.80
2018-06-17T05:23:27.109Z,19.90
2018-06-17T05:26:00.173Z,19.90
2018-06-17T05:28:33.237Z,20.00
2018-06-17T05:31:06.385Z,20.10
2018-06-17T05:33:39.484Z,20.20
2018-06-17T05:36:12.508Z,20.30
2018-06-17T05:38:45.570Z,20.40
2018-06-17T05:41:18.670Z,20.50
2018-06-17T05:43:51.810Z,20.60
2018-06-17T05:46:24.883Z,20.70
2018-06-17T05:48:57.935Z,20.70
2018-06-17T05:51:31.061Z,20.80
2018-06-17T05:54:04.147Z,20.80
2018-06-17T05:56:37.253Z,20.90
2018-06-17T05:59:10.281Z,21.00
2018-06-17T06:01:43.352Z,21.00
2018-06-17T06:04:16.445Z,21.00
2018-06-17T06:06:49.516Z,21.10
2018-06-17T06:09:22.602Z,21.10
2018-06-17T06:11:56.197Z,21.10
2018-06-17T06:14:29.311Z,21.20
2018-06-17T06:17:03.050Z,21.20
2018-06-17T06:19:36.224Z,21.20
2018-06-17T06:22:09.307Z,21.20
2018-06-17T06:24:42.374Z,21.20
2018-06-17T06:27:15.438Z,21.30
2018-06-17T06:29:48.578Z,21.30
2018-06-17T06:32:21.693Z,21.40
2018-06-17T06:34:54.723Z,21.30
2018-06-17T06:37:27.769Z,21.40
2018-06-17T06:40:00.867Z,21.40
2018-06-17T06:42:33.907Z,21.40
2018-06-17T06:45:06.984Z,21.50
2018-06-17T06:47:40.038Z,21.50
2018-06-17T06:50:13.211Z,21.60
2018-06-17T06:52:46.282Z,21.60
2018-06-17T06:55:19.309Z,21.60
2018-06-17T06:57:52.409Z,21.60
2018-06-17T07:00:25.469Z,21.70
2018-06-17T07:03:09.971Z,21.70
2018-06-17T07:05:54.451Z,21.80
2018-06-17T07:08:39.032Z,21.80
2018-06-17T07:11:12.121Z,21.90
2018-06-17T07:13:45.201Z,22.00
2018-06-17T07:16:29.546Z,22.10
2018-06-17T07:19:02.674Z,22.10
2018-06-17T07:24:08.635Z,22.20
2018-06-17T07:26:57.529Z,22.30
2018-06-17T07:29:41.878Z,22.30
2018-06-17T07:32:14.981Z,22.40
2018-06-17T07:34:47.988Z,22.50
2018-06-17T07:37:21.034Z,22.50
2018-06-17T07:40:16.795Z,22.70
2018-06-17T07:42:49.959Z,22.70
2018-06-17T07:45:23.057Z,22.70
2018-06-17T07:47:56.157Z,22.80
2018-06-17T07:50:40.597Z,23.00
2018-06-17T07:53:17.133Z,23.00
2018-06-17T07:55:50.190Z,23.10
2018-06-17T07:58:23.236Z,23.10
2018-06-17T08:00:56.472Z,23.10
2018-06-17T08:03:29.572Z,23.20
2018-06-17T08:06:02.627Z,23.20
2018-06-17T08:08:35.666Z,23.20
2018-06-17T08:11:08.731Z,23.30
2018-06-17T08:13:41.785Z,23.30
2018-06-17T08:16:14.858Z,23.30
2018-06-17T08:18:47.889Z,23.40
2018-06-17T08:21:20.997Z,23.50
2018-06-17T08:23:54.052Z,23.50
2018-06-17T08:26:27.127Z,23.70
2018-06-17T08:29:00.162Z,23.80
2018-06-17T08:31:33.437Z,23.80
2018-06-17T08:34:06.489Z,23.80
2018-06-17T08:36:39.929Z,24.00
2018-06-17T08:39:14.442Z,24.00
2018-06-17T08:41:47.518Z,24.00
2018-06-17T08:46:53.872Z,24.00
2018-06-17T08:49:26.888Z,24.10
2018-06-17T08:52:00.041Z,24.10
2018-06-17T08:54:33.050Z,24.00
2018-06-17T08:57:06.095Z,24.00
2018-06-17T08:59:39.229Z,23.90
2018-06-17T09:02:13.497Z,23.90
2018-06-17T09:04:46.544Z,23.80
2018-06-17T09:07:19.620Z,23.80
2018-06-17T09:09:52.703Z,23.60
2018-06-17T09:12:25.860Z,23.60
2018-06-17T09:14:58.846Z,23.60
2018-06-17T09:17:32.106Z,23.60
2018-06-17T09:20:05.166Z,23.70
2018-06-17T09:22:38.245Z,23.90
2018-06-17T09:25:11.308Z,24.00
2018-06-17T09:27:44.436Z,24.00
2018-06-17T09:30:17.801Z,24.10
2018-06-17T09:32:50.899Z,24.20
2018-06-17T09:35:23.963Z,24.30
2018-06-17T09:37:57.097Z,24.30
2018-06-17T09:40:30.191Z,24.40
2018-06-17T09:45:36.148Z,24.60
2018-06-17T09:48:09.273Z,24.80
2018-06-17T09:50:42.333Z,24.90
2018-06-17T09:53:15.370Z,25.10
2018-06-17T09:55:48.407Z,25.20
2018-06-17T09:58:21.467Z,25.30
2018-06-17T10:00:54.662Z,25.50
2018-06-17T10:03:27.714Z,25.50
2018-06-17T10:06:00.829Z,25.60
2018-06-17T10:08:33.874Z,25.80
2018-06-17T10:11:07.941Z,25.50
2018-06-17T10:13:43.106Z,25.50
2018-06-17T10:16:16.845Z,25.60
2018-06-17T10:18:49.881Z,25.60
2018-06-17T10:21:22.924Z,25.70
2018-06-17T10:23:56.170Z,25.70
2018-06-17T10:26:29.406Z,25.50
2018-06-17T10:29:02.430Z,25.60
2018-06-17T10:31:35.444Z,25.70
2018-06-17T10:34:08.510Z,26.00
2018-06-17T10:36:41.584Z,26.10
2018-06-17T10:39:14.602Z,26.20
2018-06-17T10:41:47.638Z,26.50
2018-06-17T10:44:20.747Z,26.60
2018-06-17T10:46:53.742Z,26.90
2018-06-17T10:49:26.826Z,27.00
2018-06-17T10:52:00.048Z,26.80
2018-06-17T10:54:33.155Z,26.70
2018-06-17T10:57:06.167Z,26.60
2018-06-17T10:59:39.209Z,26.70
2018-06-17T11:02:12.233Z,26.40
2018-06-17T11:04:45.309Z,26.40
2018-06-17T11:07:18.319Z,26.20
2018-06-17T11:09:51.373Z,26.00
2018-06-17T11:12:24.431Z,26.00
2018-06-17T11:14:57.638Z,26.20
2018-06-17T11:17:30.702Z,26.20
2018-06-17T11:20:03.774Z,26.20
2018-06-17T11:22:36.774Z,26.40
2018-06-17T11:25:09.802Z,26.50
2018-06-17T11:27:42.891Z,26.70
2018-06-17T11:30:15.938Z,26.90
2018-06-17T11:32:48.982Z,26.90
2018-06-17T11:35:22.065Z,27.00
2018-06-17T11:37:55.063Z,27.30
2018-06-17T11:40:28.101Z,27.20
2018-06-17T11:43:01.137Z,27.40
2018-06-17T11:45:34.210Z,27.50
2018-06-17T11:48:07.226Z,27.50
2018-06-17T11:50:40.271Z,27.70
2018-06-17T11:53:13.314Z,27.60
2018-06-17T11:55:46.441Z,27.30
2018-06-17T11:58:19.531Z,27.20
2018-06-17T12:00:52.566Z,27.00
2018-06-17T12:03:25.587Z,26.90
2018-06-17T12:05:58.666Z,26.90
2018-06-17T12:08:31.682Z,26.90
2018-06-17T12:11:04.771Z,26.90
2018-06-17T12:13:37.887Z,26.70
2018-06-17T12:16:10.931Z,26.50
2018-06-17T12:18:44.131Z,26.50
2018-06-17T12:21:17.204Z,26.50
2018-06-17T12:23:50.314Z,26.70
2018-06-17T12:26:23.470Z,26.60
2018-06-17T12:28:56.520Z,26.70
2018-06-17T12:31:29.548Z,26.70
2018-06-17T12:34:02.566Z,26.60
2018-06-17T12:36:35.643Z,26.40
2018-06-17T12:39:11.523Z,26.40
2018-06-17T12:41:44.561Z,26.30
2018-06-17T12:44:17.658Z,26.40
2018-06-17T12:46:50.685Z,26.40
2018-06-17T12:49:23.700Z,26.60
2018-06-17T12:51:56.784Z,26.70
2018-06-17T12:54:29.957Z,26.80
2018-06-17T12:57:03.027Z,27.00
2018-06-17T12:59:36.080Z,26.90
2018-06-17T13:02:09.154Z,26.90
2018-06-17T13:04:42.227Z,27.10
2018-06-17T13:07:15.354Z,27.10
2018-06-17T13:09:48.384Z,27.30
2018-06-17T13:12:21.542Z,27.40
2018-06-17T13:14:54.567Z,27.40
2018-06-17T13:17:27.610Z,27.50
2018-06-17T13:20:00.645Z,27.50
2018-06-17T13:22:34.186Z,27.70
2018-06-17T13:25:07.181Z,27.70
2018-06-17T13:27:40.205Z,27.80
2018-06-17T13:30:13.246Z,27.90
2018-06-17T13:32:46.329Z,27.90
2018-06-17T13:35:19.414Z,27.70
2018-06-17T13:37:52.685Z,27.50
2018-06-17T13:40:25.715Z,27.40
2018-06-17T13:43:04.974Z,27.50
2018-06-17T13:45:37.986Z,27.60
2018-06-17T13:48:11.038Z,27.80
2018-06-17T13:50:44.059Z,28.00
2018-06-17T13:55:49.999Z,28.00
2018-06-17T13:58:23.061Z,27.90
2018-06-17T14:00:56.156Z,28.00
2018-06-17T14:03:29.230Z,27.90
2018-06-17T14:06:02.349Z,27.90
2018-06-17T14:08:35.467Z,27.90
2018-06-17T14:11:08.579Z,27.80
2018-06-17T14:13:41.642Z,27.90
2018-06-17T14:16:14.799Z,27.90
2018-06-17T14:18:47.892Z,27.80
2018-06-17T14:21:20.899Z,27.80
2018-06-17T14:23:53.910Z,27.70
2018-06-17T14:26:26.978Z,27.60
2018-06-17T14:29:00.162Z,27.50
2018-06-17T14:31:33.281Z,27.60
2018-06-17T14:34:06.520Z,27.70
2018-06-17T14:36:39.587Z,27.60
2018-06-17T14:39:13.407Z,27.40
2018-06-17T14:41:50.695Z,27.50
2018-06-17T14:44:29.134Z,27.60
2018-06-17T14:47:07.553Z,27.60
2018-06-17T14:49:46.068Z,27.50
2018-06-17T14:52:25.549Z,27.60
2018-06-17T14:54:59.177Z,27.60
2018-06-17T14:57:32.298Z,27.50
2018-06-17T15:00:05.423Z,27.50
2018-06-17T15:02:38.449Z,27.50
2018-06-17T15:05:11.470Z,27.40
2018-06-17T15:07:44.526Z,27.20
2018-06-17T15:10:17.578Z,26.90
2018-06-17T15:12:50.673Z,26.80
2018-06-17T15:15:23.692Z,26.80
2018-06-17T15:17:56.735Z,26.90
2018-06-17T15:20:29.810Z,26.90
2018-06-17T15:23:02.906Z,26.80
2018-06-17T15:25:35.987Z,26.90
2018-06-17T15:28:08.997Z,26.90
2018-06-17T15:30:42.038Z,26.90
2018-06-17T15:34:21.001Z,26.90
2018-06-17T15:36:59.543Z,26.90
2018-06-17T15:39:37.931Z,26.70
2018-06-17T15:42:10.987Z,26.70
2018-06-17T15:44:44.018Z,26.60
2018-06-17T15:47:17.064Z,26.60
2018-06-17T15:49:50.246Z,26.60
2018-06-17T15:52:23.289Z,26.60
2018-06-17T15:54:56.323Z,26.70
2018-06-17T15:57:29.479Z,26.70
2018-06-17T16:00:02.561Z,26.60
2018-06-17T16:02:35.601Z,26.60
2018-06-17T16:05:08.666Z,26.50
2018-06-17T16:07:41.716Z,26.50
2018-06-17T16:10:14.747Z,26.50
2018-06-17T16:12:53.306Z,26.40
2018-06-17T16:15:31.859Z,26.50
2018-06-17T16:18:10.493Z,26.60
2018-06-17T16:20:48.996Z,26.70
2018-06-17T16:23:23.048Z,26.60
2018-06-17T16:25:56.100Z,26.40
2018-06-17T16:28:29.179Z,26.20
2018-06-17T16:31:02.318Z,26.20
2018-06-17T16:33:35.338Z,26.00
2018-06-17T16:36:08.365Z,26.00
2018-06-17T16:38:41.463Z,26.00
2018-06-17T16:41:14.544Z,26.10
2018-06-17T16:43:47.663Z,26.10
2018-06-17T16:46:20.700Z,26.00
2018-06-17T16:48:53.824Z,26.00
2018-06-17T16:51:32.334Z,25.90
2018-06-17T16:54:11.179Z,25.90
2018-06-17T16:56:49.620Z,25.80
2018-06-17T16:59:28.207Z,25.60
2018-06-17T17:02:01.282Z,25.50
2018-06-17T17:04:34.306Z,25.60
2018-06-17T17:07:07.317Z,25.50
2018-06-17T17:09:40.390Z,25.50
2018-06-17T17:12:13.390Z,25.40
2018-06-17T17:14:46.437Z,25.40
2018-06-17T17:17:19.490Z,25.30
2018-06-17T17:19:52.531Z,25.30
2018-06-17T17:22:25.537Z,25.30
2018-06-17T17:24:58.601Z,25.20
2018-06-17T17:27:31.594Z,25.10
2018-06-17T17:30:04.778Z,25.10
2018-06-17T17:34:48.611Z,25.00
2018-06-17T17:37:27.184Z,24.90
2018-06-17T17:40:05.711Z,24.60
2018-06-17T17:42:38.790Z,24.50
2018-06-17T17:45:16.942Z,24.40
2018-06-17T17:47:50.108Z,24.30
2018-06-17T17:50:23.233Z,24.40
2018-06-17T17:52:56.348Z,24.30
2018-06-17T17:55:29.571Z,24.20
2018-06-17T17:58:03.237Z,24.20
2018-06-17T18:00:36.268Z,24.20
2018-06-17T18:03:09.329Z,24.20
2018-06-17T18:08:15.288Z,24.00
2018-06-17T18:10:48.534Z,23.90
2018-06-17T18:13:21.709Z,23.90
2018-06-17T18:15:54.733Z,23.80
2018-06-17T18:18:27.761Z,23.80
2018-06-17T18:21:01.400Z,23.80
2018-06-17T18:23:34.559Z,23.70
2018-06-17T18:26:13.050Z,23.70
2018-06-17T18:28:51.614Z,23.70
2018-06-17T18:31:24.804Z,23.60
2018-06-17T18:34:03.410Z,23.60
2018-06-17T18:41:42.203Z,23.40
2018-06-17T18:44:15.410Z,23.40
2018-06-17T18:46:48.511Z,23.30
2018-06-17T18:49:21.602Z,23.20
2018-06-17T18:51:54.647Z,23.20
2018-06-17T18:54:27.742Z,23.20
2018-06-17T18:57:00.910Z,23.20
2018-06-17T18:59:33.982Z,23.20
2018-06-17T19:02:09.131Z,23.20
2018-06-17T19:04:42.274Z,23.20
2018-06-17T19:07:15.695Z,23.30
2018-06-17T19:09:54.011Z,23.30
2018-06-17T19:12:32.578Z,23.30
2018-06-17T19:15:12.121Z,23.30
2018-06-17T19:17:50.645Z,23.30
2018-06-17T19:20:23.765Z,23.30
2018-06-17T19:22:56.826Z,23.40
2018-06-17T19:25:29.916Z,23.40
2018-06-17T19:28:03.040Z,23.40
2018-06-17T19:30:36.146Z,23.40
2018-06-17T19:33:09.219Z,23.30
2018-06-17T19:35:42.299Z,23.30
2018-06-17T19:38:15.368Z,23.30
2018-06-17T19:40:48.514Z,23.30
2018-06-17T19:43:21.671Z,23.30
2018-06-17T19:45:55.227Z,23.30
2018-06-17T19:48:28.262Z,23.30
2018-06-17T19:51:06.803Z,23.20
2018-06-17T19:53:45.325Z,23.20
2018-06-17T19:56:24.053Z,23.20
2018-06-17T19:59:02.650Z,23.10
2018-06-17T20:01:35.699Z,23.10
2018-06-17T20:04:08.845Z,23.10
2018-06-17T20:06:41.918Z,23.00
2018-06-17T20:09:15.031Z,23.00
2018-06-17T20:11:48.163Z,23.00
2018-06-17T20:14:21.363Z,22.90
2018-06-17T20:16:54.433Z,22.90
2018-06-17T20:22:00.577Z,22.70
2018-06-17T20:24:33.697Z,22.60
2018-06-17T20:27:06.778Z,22.50
2018-06-17T20:29:39.872Z,22.50
2018-06-17T20:32:18.332Z,22.40
2018-06-17T20:34:57.142Z,22.40
2018-06-17T20:37:35.588Z,22.30
2018-06-17T20:40:14.006Z,22.30
2018-06-17T20:42:52.799Z,22.20
2018-06-17T20:45:25.932Z,22.20
2018-06-17T20:47:59.160Z,22.20
2018-06-17T20:50:32.195Z,22.10
2018-06-17T20:55:38.199Z,22.00
2018-06-17T20:58:11.315Z,21.90
2018-06-17T21:00:44.603Z,21.80
2018-06-17T21:03:17.891Z,21.60
2018-06-17T21:05:51.083Z,21.60
2018-06-17T21:10:57.008Z,21.50
2018-06-17T21:13:30.072Z,21.50
2018-06-17T21:16:03.158Z,21.40
2018-06-17T21:18:41.620Z,21.40
2018-06-17T21:21:20.027Z,21.30
2018-06-17T21:23:58.614Z,21.30
2018-06-17T21:26:36.858Z,21.30
2018-06-17T21:29:09.975Z,21.20
2018-06-17T21:31:43.099Z,21.10
2018-06-17T21:34:16.357Z,21.10
2018-06-17T21:39:22.360Z,21.00
2018-06-17T21:41:55.485Z,20.90
2018-06-17T21:44:28.559Z,20.80
2018-06-17T21:47:01.678Z,20.60
2018-06-17T21:49:34.800Z,20.40
2018-06-17T21:52:08.114Z,20.20
2018-06-17T21:54:41.263Z,20.00
2018-06-17T21:57:14.359Z,19.90
2018-06-17T21:59:47.502Z,19.90
2018-06-17T22:02:20.656Z,19.80
2018-06-17T22:04:53.987Z,19.80
2018-06-17T22:07:27.135Z,19.70
2018-06-17T22:10:05.696Z,19.70
2018-06-17T22:13:12.316Z,19.70
2018-06-17T22:17:58.878Z,19.70
2018-06-17T22:20:32.010Z,19.60
2018-06-17T22:23:05.128Z,19.60
2018-06-17T22:25:38.319Z,19.60
2018-06-17T22:28:11.507Z,19.60
2018-06-17T22:30:44.686Z,19.60
2018-06-17T22:33:17.759Z,19.60
2018-06-17T22:35:50.906Z,19.60
2018-06-17T22:43:29.943Z,19.50
2018-06-17T22:46:03.226Z,19.50
2018-06-17T22:48:36.410Z,19.50
2018-06-17T22:51:09.545Z,19.50
2018-06-17T22:53:53.939Z,19.50
2018-06-17T22:58:35.763Z,19.50
2018-06-17T23:01:14.522Z,19.50
2018-06-17T23:03:53.145Z,19.40
2018-06-17T23:06:32.009Z,19.30
2018-06-17T23:09:13.077Z,19.30
2018-06-17T23:11:46.183Z,19.30
2018-06-17T23:14:19.346Z,19.20
2018-06-17T23:16:52.450Z,19.20
2018-06-17T23:19:25.586Z,19.10
2018-06-17T23:21:58.669Z,19.10
2018-06-17T23:24:31.787Z,19.10
2018-06-17T23:27:04.910Z,19.00
2018-06-17T23:29:37.990Z,19.00
2018-06-17T23:32:11.111Z,19.00
2018-06-17T23:34:44.377Z,18.70
2018-06-17T23:37:17.617Z,18.50
2018-06-17T23:39:50.648Z,18.40
2018-06-17T23:42:24.344Z,18.20
2018-06-17T23:44:57.352Z,18.00
2018-06-17T23:47:35.814Z,18.00
2018-06-17T23:50:14.378Z,18.10
2018-06-17T23:52:52.789Z,18.10
2018-06-17T23:55:31.204Z,18.10
2018-06-17T23:58:04.346Z,18.10
